createdAt,value
2022-12-09T00:01:13.239Z,3.60
2022-12-09T00:03:41.374Z,3.50
2022-12-09T00:06:11.401Z,3.30
2022-12-09T00:08:38.524Z,3.30
2022-12-09T00:11:07.857Z,3.30
2022-12-09T00:13:36.614Z,3.20
2022-12-09T00:16:09.387Z,3.50
2022-12-09T00:18:36.727Z,3.20
2022-12-09T00:21:19.504Z,3.20
2022-12-09T00:23:47.368Z,3.20
2022-12-09T00:26:15.556Z,3.20
2022-12-09T00:28:43.608Z,3.30
2022-12-09T00:31:14.338Z,3.30
2022-12-09T00:33:45.061Z,3.20
2022-12-09T00:36:15.190Z,3.20
2022-12-09T00:38:43.132Z,3.30
2022-12-09T00:41:11.794Z,3.20
2022-12-09T00:43:42.038Z,3.20
2022-12-09T00:46:10.644Z,3.10
2022-12-09T00:48:38.675Z,3.20
2022-12-09T00:51:12.692Z,3.20
2022-12-09T00:53:40.629Z,3.20
2022-12-09T00:56:08.954Z,3.40
2022-12-09T00:58:36.956Z,3.30
2022-12-09T01:01:05.912Z,3.30
2022-12-09T01:03:33.418Z,3.40
2022-12-09T01:06:01.220Z,3.40
2022-12-09T01:08:28.656Z,3.50
2022-12-09T01:10:55.909Z,3.50
2022-12-09T01:13:23.774Z,3.50
2022-12-09T01:15:50.943Z,3.50
2022-12-09T01:18:18.000Z,3.60
2022-12-09T01:20:45.166Z,3.50
2022-12-09T01:23:12.649Z,3.50
2022-12-09T01:25:39.995Z,3.50
2022-12-09T01:28:07.299Z,3.50
2022-12-09T01:30:34.488Z,3.60
2022-12-09T01:33:01.899Z,3.60
2022-12-09T01:35:29.379Z,3.50
2022-12-09T01:37:56.828Z,3.60
2022-12-09T01:40:24.289Z,3.50
2022-12-09T01:42:51.574Z,3.50
2022-12-09T01:45:22.319Z,3.60
2022-12-09T01:47:56.607Z,3.50
2022-12-09T01:50:26.593Z,3.50
2022-12-09T01:52:56.340Z,3.50
2022-12-09T01:55:25.894Z,3.50
2022-12-09T01:57:53.592Z,3.50
2022-12-09T02:00:21.568Z,3.50
2022-12-09T02:02:52.428Z,3.50
2022-12-09T02:05:21.795Z,3.60
2022-12-09T02:07:54.548Z,3.60
2022-12-09T02:10:22.553Z,3.60
2022-12-09T02:13:26.467Z,3.60
2022-12-09T02:15:58.933Z,3.70
2022-12-09T02:18:42.804Z,3.60
2022-12-09T02:21:41.047Z,3.60
2022-12-09T02:27:17.729Z,3.60
2022-12-09T02:29:57.773Z,3.60
2022-12-09T02:32:56.128Z,3.60
2022-12-09T02:35:39.630Z,3.60
2022-12-09T02:38:11.983Z,3.70
2022-12-09T02:41:15.759Z,3.60
2022-12-09T02:43:50.932Z,3.60
2022-12-09T02:46:26.659Z,3.60
2022-12-09T02:48:59.241Z,3.50
2022-12-09T02:51:30.935Z,3.50
2022-12-09T02:54:04.128Z,3.50
2022-12-09T02:56:35.823Z,3.40
2022-12-09T02:59:03.707Z,3.50
2022-12-09T03:01:50.030Z,3.40
2022-12-09T03:04:25.590Z,3.40
2022-12-09T03:06:57.981Z,3.40
2022-12-09T03:09:27.544Z,3.40
2022-12-09T03:11:57.785Z,3.40
2022-12-09T03:14:31.805Z,3.30
2022-12-09T03:17:09.001Z,3.30
2022-12-09T03:19:41.005Z,3.20
2022-12-09T03:22:13.733Z,3.20
2022-12-09T03:24:54.420Z,3.20
2022-12-09T03:27:34.399Z,3.20
2022-12-09T03:30:04.652Z,3.20
2022-12-09T03:32:33.959Z,3.20
2022-12-09T03:35:10.571Z,3.20
2022-12-09T03:37:40.927Z,3.20
2022-12-09T03:40:14.286Z,3.20
2022-12-09T03:42:53.495Z,3.20
2022-12-09T03:45:23.668Z,3.20
2022-12-09T03:47:52.110Z,3.10
2022-12-09T03:50:21.893Z,3.10
2022-12-09T03:52:54.250Z,3.10
2022-12-09T03:55:28.248Z,3.10
2022-12-09T03:57:58.142Z,3.20
2022-12-09T04:00:27.644Z,3.20
2022-12-09T04:02:56.250Z,3.20
2022-12-09T04:05:23.410Z,3.20
2022-12-09T04:07:54.207Z,3.30
2022-12-09T04:10:21.218Z,3.20
2022-12-09T04:12:48.289Z,3.20
2022-12-09T04:15:15.330Z,3.30
2022-12-09T04:17:45.529Z,3.30
2022-12-09T04:20:13.573Z,3.50
2022-12-09T04:22:42.261Z,3.30
2022-12-09T04:25:10.292Z,3.30
2022-12-09T04:27:38.289Z,3.30
2022-12-09T04:30:07.211Z,3.30
2022-12-09T04:32:37.286Z,3.40
2022-12-09T04:35:05.008Z,3.40
2022-12-09T04:37:32.714Z,3.40
2022-12-09T04:40:00.415Z,3.40
2022-12-09T04:42:29.104Z,3.40
2022-12-09T04:44:56.546Z,3.40
2022-12-09T04:47:24.392Z,3.50
2022-12-09T04:49:51.798Z,3.50
2022-12-09T04:52:20.538Z,3.60
2022-12-09T04:54:50.359Z,3.60
2022-12-09T04:57:18.576Z,3.60
2022-12-09T04:59:45.965Z,3.60
2022-12-09T05:02:13.530Z,3.70
2022-12-09T05:04:42.937Z,3.70
2022-12-09T05:07:11.844Z,3.70
2022-12-09T05:09:39.785Z,3.70
2022-12-09T05:12:07.427Z,3.70
2022-12-09T05:14:34.491Z,3.60
2022-12-09T05:17:03.814Z,3.60
2022-12-09T05:19:31.584Z,3.50
2022-12-09T05:21:59.431Z,3.60
2022-12-09T05:24:26.646Z,3.70
2022-12-09T05:26:53.732Z,3.60
2022-12-09T05:29:22.989Z,3.70
2022-12-09T05:31:51.942Z,3.80
2022-12-09T05:34:21.248Z,3.80
2022-12-09T05:36:48.658Z,3.70
2022-12-09T05:39:16.101Z,3.80
2022-12-09T05:41:43.597Z,3.80
2022-12-09T05:44:15.307Z,3.90
2022-12-09T05:46:42.883Z,4.00
2022-12-09T05:49:11.029Z,3.90
2022-12-09T05:51:38.529Z,3.80
2022-12-09T05:54:06.614Z,3.80
2022-12-09T05:56:34.553Z,3.80
2022-12-09T05:59:02.525Z,3.80
2022-12-09T06:01:29.987Z,3.90
2022-12-09T06:03:57.886Z,3.90
2022-12-09T06:06:28.443Z,3.90
2022-12-09T06:08:58.748Z,3.80
2022-12-09T06:11:27.044Z,3.70
2022-12-09T06:13:56.150Z,3.80
2022-12-09T06:16:23.730Z,3.80
2022-12-09T06:18:52.561Z,3.70
2022-12-09T06:21:21.205Z,3.70
2022-12-09T06:23:49.748Z,3.70
2022-12-09T06:26:23.846Z,3.80
2022-12-09T06:28:52.298Z,3.70
2022-12-09T06:31:19.853Z,3.70
2022-12-09T06:33:57.212Z,3.70
2022-12-09T06:36:26.378Z,3.60
2022-12-09T06:38:55.556Z,3.50
2022-12-09T06:41:23.231Z,3.50
2022-12-09T06:43:50.754Z,3.50
2022-12-09T06:46:26.095Z,3.40
2022-12-09T06:48:55.040Z,3.40
2022-12-09T06:51:24.665Z,3.40
2022-12-09T06:53:53.406Z,3.40
2022-12-09T06:56:21.110Z,3.30
2022-12-09T06:58:49.135Z,3.30
2022-12-09T07:01:20.945Z,3.40
2022-12-09T07:03:53.218Z,3.50
2022-12-09T07:06:34.545Z,3.40
2022-12-09T07:09:05.610Z,3.50
2022-12-09T07:11:33.684Z,3.60
2022-12-09T07:14:01.407Z,3.40
2022-12-09T07:16:30.231Z,3.40
2022-12-09T07:18:58.326Z,3.30
2022-12-09T07:21:26.281Z,3.20
2022-12-09T07:23:53.432Z,3.20
2022-12-09T07:26:23.571Z,3.30
2022-12-09T07:28:51.291Z,3.30
2022-12-09T07:31:43.749Z,3.30
2022-12-09T07:34:11.797Z,3.40
2022-12-09T07:36:40.595Z,3.40
2022-12-09T07:39:13.387Z,3.50
2022-12-09T07:41:40.806Z,3.50
2022-12-09T07:44:08.672Z,3.40
2022-12-09T07:46:36.650Z,3.40
2022-12-09T07:49:06.360Z,3.40
2022-12-09T07:51:34.185Z,3.40
2022-12-09T07:54:01.724Z,3.40
2022-12-09T07:56:29.545Z,3.40
2022-12-09T07:58:57.735Z,3.40
2022-12-09T08:01:30.214Z,3.40
2022-12-09T08:03:58.219Z,3.50
2022-12-09T08:06:30.213Z,3.50
2022-12-09T08:09:02.270Z,3.50
2022-12-09T08:11:33.027Z,3.50
2022-12-09T08:14:08.899Z,3.40
2022-12-09T08:16:38.415Z,3.50
2022-12-09T08:19:06.199Z,3.50
2022-12-09T08:21:34.445Z,3.40
2022-12-09T08:24:06.095Z,3.40
2022-12-09T08:26:35.238Z,3.40
2022-12-09T08:29:02.753Z,3.40
2022-12-09T08:31:31.488Z,3.60
2022-12-09T08:34:04.617Z,3.60
2022-12-09T08:36:33.143Z,3.60
2022-12-09T08:39:02.079Z,3.60
2022-12-09T08:41:39.076Z,3.60
2022-12-09T08:44:19.421Z,3.50
2022-12-09T08:46:50.056Z,3.50
2022-12-09T08:49:22.347Z,3.50
2022-12-09T08:51:52.758Z,3.50
2022-12-09T08:54:20.181Z,3.40
2022-12-09T08:56:49.995Z,3.40
2022-12-09T08:59:18.511Z,3.40
2022-12-09T09:02:04.890Z,3.30
2022-12-09T09:04:33.929Z,3.30
2022-12-09T09:07:01.602Z,3.30
2022-12-09T09:09:29.304Z,3.20
2022-12-09T09:11:57.279Z,3.20
2022-12-09T09:14:25.695Z,3.20
2022-12-09T09:16:52.787Z,3.30
2022-12-09T09:19:25.742Z,3.40
2022-12-09T09:21:54.085Z,3.30
2022-12-09T09:24:26.849Z,3.30
2022-12-09T09:26:54.201Z,3.30
2022-12-09T09:29:23.791Z,3.30
2022-12-09T09:31:55.219Z,3.30
2022-12-09T09:34:25.927Z,3.60
2022-12-09T09:36:54.111Z,3.40
2022-12-09T09:39:22.290Z,3.30
2022-12-09T09:41:53.487Z,3.40
2022-12-09T09:44:41.161Z,3.20
2022-12-09T09:47:41.662Z,3.30
2022-12-09T09:50:38.874Z,3.40
2022-12-09T09:53:24.067Z,3.40
2022-12-09T09:56:00.731Z,3.50
2022-12-09T09:58:59.563Z,3.50
2022-12-09T10:01:32.533Z,3.40
2022-12-09T10:04:28.746Z,3.40
2022-12-09T10:07:11.739Z,3.40
2022-12-09T10:09:53.194Z,3.50
2022-12-09T10:12:51.527Z,3.60
2022-12-09T10:15:29.755Z,3.70
2022-12-09T10:18:21.340Z,3.70
2022-12-09T10:20:49.649Z,3.80
2022-12-09T10:23:18.175Z,3.70
2022-12-09T10:25:53.840Z,3.70
2022-12-09T10:28:23.139Z,3.70
2022-12-09T10:30:52.535Z,3.60
2022-12-09T10:33:28.388Z,3.60
2022-12-09T10:35:56.935Z,3.70
2022-12-09T10:38:26.930Z,3.60
2022-12-09T10:40:59.792Z,3.60
2022-12-09T10:43:38.668Z,3.60
2022-12-09T10:46:24.910Z,3.80
2022-12-09T10:48:59.056Z,3.90
2022-12-09T10:51:35.502Z,3.90
2022-12-09T10:54:33.030Z,3.80
2022-12-09T10:57:28.299Z,3.80
2022-12-09T11:00:20.192Z,3.70
2022-12-09T11:02:55.628Z,3.60
2022-12-09T11:05:35.813Z,3.70
2022-12-09T11:08:04.237Z,3.80
2022-12-09T11:10:33.211Z,3.90
2022-12-09T11:13:06.385Z,3.90
2022-12-09T11:15:39.754Z,3.90
2022-12-09T11:18:31.204Z,3.80
2022-12-09T11:21:08.042Z,3.80
2022-12-09T11:23:37.641Z,3.80
2022-12-09T11:26:21.648Z,3.70
2022-12-09T11:29:01.674Z,3.70
2022-12-09T11:31:33.803Z,3.80
2022-12-09T11:34:05.298Z,3.80
2022-12-09T11:36:42.210Z,3.70
2022-12-09T11:39:21.289Z,3.70
2022-12-09T11:42:17.414Z,3.70
2022-12-09T11:44:48.351Z,3.90
2022-12-09T11:47:27.512Z,3.80
2022-12-09T11:50:08.456Z,3.80
2022-12-09T11:52:36.176Z,3.80
2022-12-09T11:55:03.425Z,3.90
2022-12-09T11:57:57.691Z,3.90
2022-12-09T12:00:47.939Z,3.80
2022-12-09T12:03:23.764Z,3.70
2022-12-09T12:05:55.061Z,3.80
2022-12-09T12:08:27.509Z,3.80
2022-12-09T12:11:10.469Z,3.90
2022-12-09T12:13:54.347Z,4.00
2022-12-09T12:16:45.732Z,4.10
2022-12-09T12:19:35.474Z,4.10
2022-12-09T12:22:19.115Z,4.00
2022-12-09T12:25:27.486Z,3.90
2022-12-09T12:28:31.021Z,3.90
2022-12-09T12:31:11.729Z,3.90
2022-12-09T12:34:07.936Z,3.80
2022-12-09T12:36:46.508Z,3.70
2022-12-09T12:39:32.810Z,3.60
2022-12-09T12:42:34.860Z,3.60
2022-12-09T12:45:22.447Z,3.80
2022-12-09T12:47:56.136Z,3.70
2022-12-09T12:50:50.963Z,3.60
2022-12-09T12:53:39.384Z,3.60
2022-12-09T13:01:52.739Z,3.50
2022-12-09T13:05:05.033Z,3.50
2022-12-09T13:07:41.711Z,3.50
2022-12-09T13:10:47.109Z,3.50
2022-12-09T13:14:08.318Z,3.50
2022-12-09T14:03:34.062Z,3.80
2022-12-09T14:08:51.948Z,3.70
2022-12-09T14:11:39.228Z,3.70
2022-12-09T14:14:24.798Z,3.60
2022-12-09T14:16:54.960Z,3.60
2022-12-09T14:19:49.191Z,3.50
2022-12-09T14:22:22.238Z,3.60
2022-12-09T14:24:59.410Z,3.60
2022-12-09T14:27:33.094Z,3.50
2022-12-09T14:30:18.959Z,3.60
2022-12-09T14:32:49.350Z,3.50
2022-12-09T14:35:21.119Z,3.40
2022-12-09T14:37:59.891Z,3.50
2022-12-09T14:41:05.424Z,3.40
2022-12-09T14:44:07.999Z,3.40
2022-12-09T14:46:39.491Z,3.30
2022-12-09T14:49:25.411Z,3.20
2022-12-09T14:52:04.646Z,3.20
2022-12-09T14:54:44.692Z,3.10
2022-12-09T14:57:32.474Z,3.10
2022-12-09T14:59:59.672Z,3.10
2022-12-09T15:02:30.127Z,3.10
2022-12-09T15:05:30.749Z,3.10
2022-12-09T15:07:57.976Z,3.10
2022-12-09T15:10:38.249Z,3.10
2022-12-09T15:13:06.301Z,3.10
2022-12-09T15:15:36.588Z,3.10
2022-12-09T15:18:24.778Z,3.10
2022-12-09T15:21:04.808Z,3.10
2022-12-09T15:23:36.369Z,3.10
2022-12-09T15:26:38.294Z,3.10
2022-12-09T15:29:06.957Z,3.00
2022-12-09T15:31:35.330Z,3.00
2022-12-09T15:34:14.539Z,3.20
2022-12-09T15:36:52.202Z,3.00
2022-12-09T15:39:25.608Z,3.00
2022-12-09T15:42:09.671Z,2.90
2022-12-09T15:44:40.750Z,2.90
2022-12-09T15:47:16.334Z,2.90
2022-12-09T15:49:54.698Z,3.00
2022-12-09T15:52:27.694Z,3.00
2022-12-09T15:54:56.443Z,3.00
2022-12-09T15:57:24.344Z,3.10
2022-12-09T15:59:56.162Z,3.00
2022-12-09T16:02:28.261Z,3.00
2022-12-09T16:05:00.778Z,2.90
2022-12-09T16:07:32.912Z,3.00
2022-12-09T16:10:08.777Z,2.90
2022-12-09T16:12:36.718Z,3.00
2022-12-09T16:15:06.657Z,3.00
2022-12-09T16:17:55.100Z,3.10
2022-12-09T16:20:41.264Z,3.30
2022-12-09T16:23:23.805Z,3.20
2022-12-09T16:25:51.224Z,3.30
2022-12-09T16:28:23.853Z,3.30
2022-12-09T16:30:54.663Z,3.30
2022-12-09T16:33:24.535Z,3.40
2022-12-09T16:35:59.808Z,3.30
2022-12-09T16:38:27.093Z,3.30
2022-12-09T16:40:54.176Z,3.40
2022-12-09T16:43:26.445Z,3.40
2022-12-09T16:45:55.544Z,3.40
2022-12-09T16:48:24.738Z,3.50
2022-12-09T16:51:11.711Z,3.60
2022-12-09T16:53:45.142Z,3.60
2022-12-09T16:56:25.056Z,3.50
2022-12-09T16:58:54.181Z,3.60
2022-12-09T17:01:25.483Z,3.70
2022-12-09T17:04:18.181Z,3.70
2022-12-09T17:06:45.812Z,3.70
2022-12-09T17:09:13.961Z,3.60
2022-12-09T17:11:47.080Z,3.70
2022-12-09T17:14:16.475Z,3.70
2022-12-09T17:16:43.706Z,3.70
2022-12-09T17:19:12.967Z,3.70
2022-12-09T17:21:40.149Z,3.70
2022-12-09T17:24:08.296Z,3.60
2022-12-09T17:26:35.796Z,3.70
2022-12-09T17:29:03.415Z,3.70
2022-12-09T17:31:30.691Z,3.80
2022-12-09T17:33:58.521Z,3.80
2022-12-09T17:36:26.082Z,3.70
2022-12-09T17:38:53.373Z,3.80
2022-12-09T17:41:23.696Z,3.80
2022-12-09T17:43:50.999Z,3.80
2022-12-09T17:46:18.536Z,3.70
2022-12-09T17:48:45.922Z,3.70
2022-12-09T17:51:18.090Z,3.60
2022-12-09T17:53:46.500Z,3.60
2022-12-09T17:56:19.881Z,3.60
2022-12-09T17:58:48.240Z,3.50
2022-12-09T18:01:21.833Z,3.50
2022-12-09T18:03:58.538Z,3.50
2022-12-09T18:06:31.194Z,3.70
2022-12-09T18:08:58.317Z,3.60
2022-12-09T18:11:26.808Z,3.50
2022-12-09T18:13:54.113Z,3.50
2022-12-09T18:16:21.585Z,3.50
2022-12-09T18:18:49.840Z,3.50
2022-12-09T18:21:19.960Z,3.40
2022-12-09T18:23:48.622Z,3.40
2022-12-09T18:26:18.435Z,3.40
2022-12-09T18:28:45.968Z,3.30
2022-12-09T18:31:15.950Z,3.30
2022-12-09T18:33:43.237Z,3.30
2022-12-09T18:36:14.043Z,3.30
2022-12-09T18:38:41.712Z,3.30
2022-12-09T18:41:20.969Z,3.30
2022-12-09T18:43:50.263Z,3.40
2022-12-09T18:46:24.960Z,3.40
2022-12-09T18:49:07.171Z,3.30
2022-12-09T18:51:34.903Z,3.40
2022-12-09T18:54:03.977Z,3.40
2022-12-09T18:56:34.037Z,3.30
2022-12-09T18:59:09.462Z,3.30
2022-12-09T19:01:40.806Z,3.30
2022-12-09T19:04:25.171Z,3.30
2022-12-09T19:06:55.238Z,3.30
2022-12-09T19:09:28.661Z,3.30
2022-12-09T19:11:56.941Z,3.30
2022-12-09T19:14:24.626Z,3.20
2022-12-09T19:16:52.799Z,3.10
2022-12-09T19:19:25.307Z,3.20
2022-12-09T19:21:53.912Z,3.20
2022-12-09T19:24:24.004Z,3.20
2022-12-09T19:26:53.626Z,3.20
2022-12-09T19:29:25.796Z,3.10
2022-12-09T19:31:53.908Z,3.20
2022-12-09T19:34:26.995Z,3.10
2022-12-09T19:36:56.382Z,3.10
2022-12-09T19:39:30.038Z,3.10
2022-12-09T19:41:59.273Z,2.90
2022-12-09T19:47:14.665Z,2.90
2022-12-09T19:49:44.377Z,2.90
2022-12-09T19:52:13.234Z,2.80
2022-12-09T19:54:40.548Z,2.80
2022-12-09T19:57:08.442Z,2.80
2022-12-09T19:59:36.051Z,2.80
2022-12-09T20:02:03.373Z,2.80
2022-12-09T20:07:19.292Z,2.90
2022-12-09T20:09:46.456Z,2.80
2022-12-09T20:12:14.131Z,2.90
2022-12-09T20:14:42.115Z,2.90
2022-12-09T20:17:09.132Z,3.00
2022-12-09T20:19:36.886Z,3.00
2022-12-09T20:22:04.555Z,3.10
2022-12-09T20:24:31.564Z,3.00
2022-12-09T20:26:59.165Z,2.90
2022-12-09T20:29:26.313Z,2.90
2022-12-09T20:31:54.156Z,3.00
2022-12-09T20:34:21.345Z,3.10
2022-12-09T20:36:48.673Z,2.90
2022-12-09T20:39:21.068Z,3.10
2022-12-09T20:41:49.904Z,3.10
2022-12-09T20:44:19.974Z,3.00
2022-12-09T20:46:52.281Z,3.10
2022-12-09T20:49:25.760Z,3.10
2022-12-09T20:51:53.858Z,3.10
2022-12-09T20:54:22.921Z,3.10
2022-12-09T20:56:50.441Z,3.20
2022-12-09T20:59:17.560Z,3.30
2022-12-09T21:01:47.264Z,3.20
2022-12-09T21:04:15.772Z,3.20
2022-12-09T21:06:44.216Z,3.20
2022-12-09T21:09:15.034Z,3.20
2022-12-09T21:11:42.137Z,3.30
2022-12-09T21:14:12.042Z,3.30
2022-12-09T21:16:42.870Z,3.30
2022-12-09T21:19:13.572Z,3.40
2022-12-09T21:21:45.293Z,3.20
2022-12-09T21:24:14.146Z,3.20
2022-12-09T21:26:42.317Z,3.20
2022-12-09T21:29:11.441Z,3.20
2022-12-09T21:31:41.070Z,3.20
2022-12-09T21:34:10.332Z,3.30
2022-12-09T21:36:39.863Z,3.20
2022-12-09T21:39:07.924Z,3.20
2022-12-09T21:41:37.712Z,3.20
2022-12-09T21:44:06.296Z,3.20
2022-12-09T21:46:36.730Z,3.30
2022-12-09T21:49:06.731Z,3.30
2022-12-09T21:51:35.098Z,3.30
2022-12-09T21:54:02.508Z,3.30
2022-12-09T21:56:32.913Z,3.30
2022-12-09T21:59:00.971Z,3.30
2022-12-09T22:01:31.545Z,3.20
2022-12-09T22:04:01.636Z,3.20
2022-12-09T22:06:29.403Z,3.20
2022-12-09T22:09:01.617Z,3.10
2022-12-09T22:11:31.710Z,3.10
2022-12-09T22:14:00.714Z,3.20
2022-12-09T22:16:31.456Z,3.10
2022-12-09T22:18:59.968Z,3.10
2022-12-09T22:21:29.817Z,3.20
2022-12-09T22:24:03.084Z,3.20
2022-12-09T22:26:31.188Z,3.20
2022-12-09T22:29:03.834Z,3.20
2022-12-09T22:31:37.540Z,3.20
2022-12-09T22:34:15.762Z,3.10
2022-12-09T22:36:43.547Z,3.10
2022-12-09T22:39:18.084Z,3.10
2022-12-09T22:41:46.158Z,3.10
2022-12-09T22:44:15.797Z,3.10
2022-12-09T22:46:43.826Z,3.10
2022-12-09T22:49:13.601Z,3.20
2022-12-09T22:51:41.540Z,3.20
2022-12-09T22:54:10.170Z,3.10
2022-12-09T22:56:39.003Z,3.10
2022-12-09T22:59:06.358Z,3.10
2022-12-09T23:01:36.646Z,3.10
2022-12-09T23:04:05.761Z,3.10
2022-12-09T23:06:35.812Z,3.00
2022-12-09T23:09:03.732Z,3.00
2022-12-09T23:11:30.890Z,2.90
2022-12-09T23:13:59.813Z,3.00
2022-12-09T23:16:27.741Z,3.00
2022-12-09T23:18:59.199Z,2.90
2022-12-09T23:21:32.771Z,2.90
2022-12-09T23:24:03.192Z,2.90
2022-12-09T23:26:32.262Z,2.90
2022-12-09T23:29:01.181Z,2.90
2022-12-09T23:31:33.061Z,3.00
2022-12-09T23:34:02.804Z,3.00
2022-12-09T23:36:33.445Z,3.00
2022-12-09T23:39:02.571Z,3.00
2022-12-09T23:41:30.365Z,2.90
2022-12-09T23:43:57.639Z,2.80
2022-12-09T23:46:26.530Z,2.80
2022-12-09T23:48:55.586Z,2.80
2022-12-09T23:51:26.711Z,2.60
2022-12-09T23:53:57.263Z,2.60
2022-12-09T23:56:26.649Z,2.70
2022-12-09T23:58:56.126Z,2.60
